Time;durP1;ratioP1;P1;durP2;ratioP2;P2;SDS_P1;SDS_P2;PMS_P1;PMS_P2;Temp;Humidity;BMP_temperature;BMP_pressure;BME280_temperature;BME280_humidity;BME280_pressure;Samples;Min_cycle;Max_cycle;Signal;HPM_P1;HPM_P2
2023/11/01 00:01:54;;;;;;;;;;;;;;;9.19;60.21;100265.91;4193405;28;20343;-69
2023/11/01 00:03:55;;;;;;;;;;;;;;;9.17;60.11;100263.41;4194664;28;20425;-70
2023/11/01 00:05:58;;;;;;;;;;;;;;;9.16;60.48;100258.19;4196307;28;19925;-70
2023/11/01 00:08:00;;;;;;;;;;;;;;;9.15;60.00;100254.66;4195328;28;19932;-70
2023/11/01 00:10:02;;;;;;;;;;;;;;;9.14;60.31;100252.97;4195231;28;20086;-69
2023/11/01 00:12:06;;;;;;;;;;;;;;;9.13;59.91;100264.75;4195701;28;20030;-70
2023/11/01 00:14:08;;;;;;;;;;;;;;;9.13;59.93;100267.47;4195629;28;20031;-70
2023/11/01 00:16:10;;;;;;;;;;;;;;;9.11;59.91;100268.69;4196106;28;19928;-70
2023/11/01 00:18:11;;;;;;;;;;;;;;;9.11;60.26;100264.13;4195524;28;20007;-69
2023/11/01 00:20:13;;;;;;;;;;;;;;;9.11;60.14;100271.38;4195317;28;19929;-69
2023/11/01 00:22:15;;;;;;;;;;;;;;;9.10;60.60;100266.97;4195151;28;20363;-69
2023/11/01 00:24:17;;;;;;;;;;;;;;;9.08;60.29;100266.34;4195923;28;19924;-69
2023/11/01 00:26:18;;;;;;;;;;;;;;;9.08;60.64;100271.72;4195155;28;20449;-68
2023/11/01 00:28:24;;;;;;;;;;;;;;;9.06;60.70;100274.59;4195297;28;20015;-70
2023/11/01 00:30:26;;;;;;;;;;;;;;;9.04;60.90;100276.59;4193420;28;20048;-70
2023/11/01 00:32:28;;;;;;;;;;;;;;;9.04;61.18;100283.84;4177534;28;20478;-69
2023/11/01 00:34:29;;;;;;;;;;;;;;;9.01;61.55;100283.22;4195753;28;20032;-70
2023/11/01 00:36:31;;;;;;;;;;;;;;;8.99;61.88;100282.53;4193871;28;20398;-69
2023/11/01 00:38:35;;;;;;;;;;;;;;;8.98;62.14;100282.69;4194771;28;20019;-69
2023/11/01 00:40:40;;;;;;;;;;;;;;;8.95;62.36;100283.91;4195134;28;20019;-69
2023/11/01 00:42:42;;;;;;;;;;;;;;;8.93;62.84;100277.84;4195797;28;20020;-69
2023/11/01 00:44:46;;;;;;;;;;;;;;;8.94;63.42;100286.78;4194877;28;20020;-69
2023/11/01 00:46:48;;;;;;;;;;;;;;;8.93;63.89;100290.50;4195048;28;20450;-70
2023/11/01 00:48:50;;;;;;;;;;;;;;;8.94;64.04;100286.78;4196212;28;20023;-69
2023/11/01 00:50:52;;;;;;;;;;;;;;;8.91;63.83;100287.97;4193710;28;20059;-69
2023/11/01 00:52:54;;;;;;;;;;;;;;;8.91;63.93;100293.34;4194166;28;19948;-69
2023/11/01 00:54:56;;;;;;;;;;;;;;;8.92;64.18;100296.88;4194734;28;20015;-69
2023/11/01 00:56:57;;;;;;;;;;;;;;;8.92;63.95;100295.03;4195758;28;20449;-69
2023/11/01 00:58:59;;;;;;;;;;;;;;;8.90;63.76;100286.28;4193652;28;19936;-69
2023/11/01 01:01:03;;;;;;;;;;;;;;;8.89;64.17;100286.50;4171726;28;20414;-69
2023/11/01 01:03:06;;;;;;;;;;;;;;;8.88;64.25;100290.19;4193647;28;20007;-69
2023/11/01 01:05:11;;;;;;;;;;;;;;;8.88;64.71;100298.28;4202476;28;20031;-68
2023/11/01 01:07:13;;;;;;;;;;;;;;;8.88;65.01;100296.41;4193798;28;20369;-69
2023/11/01 01:09:15;;;;;;;;;;;;;;;8.88;64.88;100291.00;4194346;28;20023;-69
2023/11/01 01:11:17;;;;;;;;;;;;;;;8.88;65.01;100288.31;4194753;28;20023;-69
2023/11/01 01:13:19;;;;;;;;;;;;;;;8.88;65.32;100293.72;4186338;28;20015;-69
2023/11/01 01:15:21;;;;;;;;;;;;;;;8.88;66.06;100293.72;4192954;28;20007;-69
2023/11/01 01:17:24;;;;;;;;;;;;;;;8.86;66.28;100293.06;4194030;28;19967;-69
2023/11/01 01:19:28;;;;;;;;;;;;;;;8.87;66.15;100291.19;4193661;28;20015;-70
2023/11/01 01:21:29;;;;;;;;;;;;;;;8.86;66.20;100284.16;4193114;28;20011;-69
2023/11/01 01:23:31;;;;;;;;;;;;;;;8.86;66.96;100284.16;4194849;28;19971;-70
2023/11/01 01:25:33;;;;;;;;;;;;;;;8.84;67.12;100278.94;4194700;28;20007;-68
2023/11/01 01:27:34;;;;;;;;;;;;;;;8.82;67.62;100287.19;4194814;28;20019;-68
2023/11/01 01:29:36;;;;;;;;;;;;;;;8.83;67.77;100294.25;4194503;28;20030;-68
2023/11/01 01:31:38;;;;;;;;;;;;;;;8.83;68.68;100288.84;4192817;28;20038;-68
2023/11/01 01:33:44;;;;;;;;;;;;;;;8.85;68.57;100291.38;4210229;28;20398;-69
2023/11/01 01:35:46;;;;;;;;;;;;;;;8.84;69.10;100292.41;4209568;28;20396;-69
2023/11/01 01:37:48;;;;;;;;;;;;;;;8.84;69.63;100289.72;4194703;28;20375;-69
2023/11/01 01:39:51;;;;;;;;;;;;;;;8.84;69.81;100290.53;4194110;28;20043;-69
2023/11/01 01:41:52;;;;;;;;;;;;;;;8.83;70.78;100293.41;4192394;28;20592;-69
2023/11/01 01:43:54;;;;;;;;;;;;;;;8.83;70.73;100290.72;4193857;28;20493;-69
2023/11/01 01:45:59;;;;;;;;;;;;;;;8.83;71.35;100286.16;4193190;28;20353;-69
2023/11/01 01:48:02;;;;;;;;;;;;;;;8.82;71.71;100289.88;4193591;28;20030;-69
2023/11/01 01:50:05;;;;;;;;;;;;;;;8.81;71.79;100290.06;4193296;28;19925;-70
2023/11/01 01:52:06;;;;;;;;;;;;;;;8.80;72.13;100286.50;4185990;28;20039;-69
2023/11/01 01:54:08;;;;;;;;;;;;;;;8.81;72.49;100287.38;4192921;28;19928;-69
2023/11/01 01:56:10;;;;;;;;;;;;;;;8.79;72.70;100284.84;4194074;28;20023;-69
2023/11/01 01:58:12;;;;;;;;;;;;;;;8.80;72.72;100286.50;4193581;28;20395;-68
2023/11/01 02:00:15;;;;;;;;;;;;;;;8.80;72.91;100285.69;4193246;28;20026;-69
2023/11/01 02:02:16;;;;;;;;;;;;;;;8.80;73.13;100293.75;4175660;28;19971;-68
2023/11/01 02:04:18;;;;;;;;;;;;;;;8.80;72.68;100289.22;4193716;28;20015;-69
2023/11/01 02:06:20;;;;;;;;;;;;;;;8.81;72.63;100282.00;4193664;28;20039;-69
2023/11/01 02:08:22;;;;;;;;;;;;;;;8.79;72.58;100284.00;4165781;28;20292;-69
2023/11/01 02:10:24;;;;;;;;;;;;;;;8.78;72.73;100288.56;4192696;28;20019;-69
2023/11/01 02:12:28;;;;;;;;;;;;;;;8.78;72.64;100293.09;4193766;28;20016;-69
2023/11/01 02:14:31;;;;;;;;;;;;;;;8.78;72.47;100285.03;4193368;28;20020;-69
2023/11/01 02:16:33;;;;;;;;;;;;;;;8.77;72.47;100283.34;4210720;28;20019;-70
2023/11/01 02:18:35;;;;;;;;;;;;;;;8.74;73.00;100284.53;4209294;28;20327;-69
2023/11/01 02:20:38;;;;;;;;;;;;;;;8.74;73.28;100283.69;4192210;28;20031;-70
2023/11/01 02:22:42;;;;;;;;;;;;;;;8.72;73.40;100285.72;4194170;28;20441;-70
2023/11/01 02:24:45;;;;;;;;;;;;;;;8.70;73.88;100285.06;4194048;28;20051;-69
2023/11/01 02:26:47;;;;;;;;;;;;;;;8.72;74.48;100285.72;4193839;28;20023;-69
2023/11/01 02:28:49;;;;;;;;;;;;;;;8.72;74.22;100286.56;4193303;28;20020;-69
2023/11/01 02:30:51;;;;;;;;;;;;;;;8.72;74.39;100277.66;4192283;28;20019;-69
2023/11/01 02:32:53;;;;;;;;;;;;;;;8.70;73.91;100275.13;4191940;28;20019;-69
2023/11/01 02:34:55;;;;;;;;;;;;;;;8.70;74.20;100267.06;4192870;28;20015;-70
2023/11/01 02:36:57;;;;;;;;;;;;;;;8.70;74.56;100277.84;4176290;28;20342;-69
2023/11/01 02:39:00;;;;;;;;;;;;;;;8.72;74.26;100280.34;4193932;28;19928;-69
2023/11/01 02:41:03;;;;;;;;;;;;;;;8.72;74.02;100278.50;4192962;28;20003;-69
2023/11/01 02:43:05;;;;;;;;;;;;;;;8.72;73.40;100278.50;4193018;28;20062;-69
2023/11/01 02:45:09;;;;;;;;;;;;;;;8.70;73.36;100276.97;4193056;28;20015;-69
2023/11/01 02:47:11;;;;;;;;;;;;;;;8.70;73.37;100275.13;4209393;28;20862;-69
2023/11/01 02:49:13;;;;;;;;;;;;;;;8.71;73.24;100278.66;4193064;28;20015;-70
2023/11/01 02:51:15;;;;;;;;;;;;;;;8.70;73.07;100276.97;4192333;28;20572;-69
2023/11/01 02:53:17;;;;;;;;;;;;;;;8.69;73.24;100273.44;4208293;28;20295;-69
2023/11/01 02:55:22;;;;;;;;;;;;;;;8.72;73.56;100274.97;4189345;28;20474;-70
2023/11/01 02:57:25;;;;;;;;;;;;;;;8.69;73.12;100273.44;4193502;28;20645;-69
2023/11/01 02:59:28;;;;;;;;;;;;;;;8.69;73.47;100278.00;4192018;28;20023;-69
2023/11/01 03:01:31;;;;;;;;;;;;;;;8.66;72.87;100274.63;4190810;28;20356;-69
2023/11/01 03:03:33;;;;;;;;;;;;;;;8.66;73.49;100282.72;4192866;28;20015;-69
2023/11/01 03:05:35;;;;;;;;;;;;;;;8.69;74.04;100278.00;4192468;28;20495;-69
2023/11/01 03:07:36;;;;;;;;;;;;;;;8.65;73.74;100270.28;4192973;28;20020;-69
2023/11/01 03:09:38;;;;;;;;;;;;;;;8.66;73.42;100280.03;4193746;28;20359;-69
2023/11/01 03:11:41;;;;;;;;;;;;;;;8.66;73.67;100279.19;4192937;28;20062;-69
2023/11/01 03:13:44;;;;;;;;;;;;;;;8.65;74.25;100281.06;4193976;28;20016;-69
2023/11/01 03:15:46;;;;;;;;;;;;;;;8.66;74.76;100279.19;4196850;28;20011;-70
2023/11/01 03:17:49;;;;;;;;;;;;;;;8.68;75.09;100279.00;4196992;28;20030;-69
2023/11/01 03:19:50;;;;;;;;;;;;;;;8.69;75.02;100275.31;4196360;28;19925;-69
2023/11/01 03:21:52;;;;;;;;;;;;;;;8.69;75.05;100280.69;4194863;28;20015;-70
2023/11/01 03:23:53;;;;;;;;;;;;;;;8.68;75.04;100279.84;4195169;28;20027;-69
2023/11/01 03:25:55;;;;;;;;;;;;;;;8.69;74.94;100276.16;4196787;28;19935;-69
2023/11/01 03:27:57;;;;;;;;;;;;;;;8.71;74.92;100275.97;4195835;28;20019;-69
2023/11/01 03:30:01;;;;;;;;;;;;;;;8.72;74.85;100286.56;4196594;28;20007;-69
2023/11/01 03:32:03;;;;;;;;;;;;;;;8.73;74.95;100287.38;4195094;28;20403;-68
2023/11/01 03:34:05;;;;;;;;;;;;;;;8.73;74.30;100285.56;4195985;28;20445;-69
2023/11/01 03:36:07;;;;;;;;;;;;;;;8.73;73.56;100282.00;4196363;28;20031;-69
2023/11/01 03:38:09;;;;;;;;;;;;;;;8.71;73.61;100281.34;4195199;28;20027;-69
2023/11/01 03:40:11;;;;;;;;;;;;;;;8.73;74.42;100276.63;4196411;28;19924;-68
2023/11/01 03:42:14;;;;;;;;;;;;;;;8.74;74.32;100283.69;4193470;28;20011;-69
2023/11/01 03:44:16;;;;;;;;;;;;;;;8.75;74.96;100282.69;4194571;28;20011;-68
2023/11/01 03:46:20;;;;;;;;;;;;;;;8.74;74.81;100286.38;4196395;28;19974;-69
2023/11/01 03:48:21;;;;;;;;;;;;;;;8.74;74.63;100283.69;4195057;28;20015;-69
2023/11/01 03:50:23;;;;;;;;;;;;;;;8.75;75.40;100288.06;4194467;28;20391;-69
2023/11/01 03:52:25;;;;;;;;;;;;;;;8.74;75.15;100292.59;4195580;28;20015;-69
2023/11/01 03:54:27;;;;;;;;;;;;;;;8.74;74.77;100289.91;4188542;28;20515;-69
2023/11/01 03:56:30;;;;;;;;;;;;;;;8.75;74.88;100294.28;4196184;28;20454;-69
2023/11/01 03:58:32;;;;;;;;;;;;;;;8.74;75.15;100286.38;4195214;28;20451;-69
2023/11/01 04:00:34;;;;;;;;;;;;;;;8.74;75.33;100289.09;4194197;28;20457;-68
2023/11/01 04:02:37;;;;;;;;;;;;;;;8.74;75.54;100284.53;4193640;28;20019;-68
2023/11/01 04:04:38;;;;;;;;;;;;;;;8.74;75.61;100287.22;4196274;28;20027;-68
2023/11/01 04:06:40;;;;;;;;;;;;;;;8.75;76.02;100288.06;4195449;28;19935;-68
2023/11/01 04:08:44;;;;;;;;;;;;;;;8.76;75.88;100287.91;4194867;28;20011;-69
2023/11/01 04:10:46;;;;;;;;;;;;;;;8.76;76.00;100287.03;4194907;28;20035;-68
2023/11/01 04:12:48;;;;;;;;;;;;;;;8.77;75.85;100288.72;4195834;28;20045;-69
2023/11/01 04:14:51;;;;;;;;;;;;;;;8.77;75.88;100286.88;4194854;28;20027;-70
2023/11/01 04:16:53;;;;;;;;;;;;;;;8.76;75.93;100293.28;4195581;28;20019;-69
2023/11/01 04:18:57;;;;;;;;;;;;;;;8.77;76.07;100292.25;4196084;28;20015;-69
2023/11/01 04:20:58;;;;;;;;;;;;;;;8.76;75.83;100285.22;4185010;28;19961;-69
2023/11/01 04:23:00;;;;;;;;;;;;;;;8.76;75.67;100287.03;4195404;28;20020;-68
2023/11/01 04:25:05;;;;;;;;;;;;;;;8.79;75.44;100282.16;4194966;28;20015;-69
2023/11/01 04:27:07;;;;;;;;;;;;;;;8.80;75.86;100274.91;4195858;28;20027;-69
2023/11/01 04:29:08;;;;;;;;;;;;;;;8.82;75.75;100273.72;4195251;28;20411;-69
2023/11/01 04:31:10;;;;;;;;;;;;;;;8.84;75.58;100270.88;4192514;28;19928;-69
2023/11/01 04:33:12;;;;;;;;;;;;;;;8.85;75.56;100272.53;4188209;28;19924;-69
2023/11/01 04:35:15;;;;;;;;;;;;;;;8.88;75.33;100269.47;4188850;28;19925;-68
2023/11/01 04:37:18;;;;;;;;;;;;;;;8.90;75.40;100270.13;4193653;28;19967;-69
2023/11/01 04:39:20;;;;;;;;;;;;;;;8.92;74.95;100278.88;4193662;28;20028;-69
2023/11/01 04:41:22;;;;;;;;;;;;;;;8.93;74.82;100267.06;4195041;28;19928;-69
2023/11/01 04:43:24;;;;;;;;;;;;;;;8.95;74.95;100273.16;4194428;28;20012;-69
2023/11/01 04:45:27;;;;;;;;;;;;;;;8.97;74.78;100264.88;4194420;28;20020;-69
2023/11/01 04:47:29;;;;;;;;;;;;;;;8.95;74.30;100266.91;4195114;28;20023;-69
2023/11/01 04:49:30;;;;;;;;;;;;;;;8.96;74.15;100265.88;4194354;28;20044;-70
2023/11/01 04:51:36;;;;;;;;;;;;;;;8.96;74.42;100260.50;4194610;28;20418;-69
2023/11/01 04:53:38;;;;;;;;;;;;;;;8.97;73.84;100262.19;4194576;28;20354;-69
2023/11/01 04:55:39;;;;;;;;;;;;;;;8.95;74.06;100251.59;4193827;28;20019;-70
2023/11/01 04:57:43;;;;;;;;;;;;;;;8.96;73.80;100261.34;4194319;28;20015;-68
2023/11/01 04:59:45;;;;;;;;;;;;;;;8.98;73.76;100253.06;4194703;28;20030;-69
2023/11/01 05:01:47;;;;;;;;;;;;;;;8.97;73.93;100254.94;4190981;28;19932;-69
2023/11/01 05:03:49;;;;;;;;;;;;;;;8.99;73.83;100262.84;4194306;28;20015;-69
2023/11/01 05:05:52;;;;;;;;;;;;;;;8.98;74.14;100250.38;4192602;28;20357;-69
2023/11/01 05:07:55;;;;;;;;;;;;;;;8.99;73.77;100254.75;4193253;28;20011;-70
2023/11/01 05:09:57;;;;;;;;;;;;;;;8.98;73.91;100253.06;4193668;28;20071;-69
2023/11/01 05:11:59;;;;;;;;;;;;;;;8.98;74.15;100253.06;4194307;28;20038;-69
2023/11/01 05:14:01;;;;;;;;;;;;;;;8.98;74.46;100253.06;4194192;28;20039;-69
2023/11/01 05:16:03;;;;;;;;;;;;;;;8.98;74.53;100255.78;4192870;28;20015;-69
2023/11/01 05:18:06;;;;;;;;;;;;;;;8.98;74.67;100251.25;4194558;28;20373;-69
2023/11/01 05:20:08;;;;;;;;;;;;;;;8.99;74.85;100249.38;4194581;28;20019;-70
2023/11/01 05:22:11;;;;;;;;;;;;;;;9.00;74.88;100248.38;4194585;28;19936;-70
2023/11/01 05:24:14;;;;;;;;;;;;;;;8.99;74.47;100244.00;4193315;28;20015;-70
2023/11/01 05:26:16;;;;;;;;;;;;;;;8.99;74.57;100250.22;4194671;28;20023;-70
2023/11/01 05:28:18;;;;;;;;;;;;;;;9.00;75.06;100242.97;4193675;28;20019;-69
2023/11/01 05:30:20;;;;;;;;;;;;;;;9.00;74.93;100243.81;4193755;28;20035;-70
2023/11/01 05:32:22;;;;;;;;;;;;;;;9.00;75.13;100238.44;4191766;28;20062;-70
2023/11/01 05:34:24;;;;;;;;;;;;;;;9.00;75.33;100241.13;4194896;28;20458;-68
2023/11/01 05:36:26;;;;;;;;;;;;;;;9.01;75.12;100248.19;4192499;28;20466;-70
2023/11/01 05:38:28;;;;;;;;;;;;;;;9.01;75.16;100248.19;4193975;28;20339;-69
2023/11/01 05:40:32;;;;;;;;;;;;;;;9.02;75.26;100254.41;4193124;28;20023;-69
2023/11/01 05:42:33;;;;;;;;;;;;;;;9.04;75.23;100255.06;4193209;28;20034;-70
2023/11/01 05:44:36;;;;;;;;;;;;;;;9.04;75.17;100256.91;4196094;28;20470;-70
2023/11/01 05:46:38;;;;;;;;;;;;;;;9.05;75.06;100258.59;4196071;28;20427;-70
2023/11/01 05:48:42;;;;;;;;;;;;;;;9.04;74.49;100265.00;4199778;28;19971;-68
2023/11/01 05:50:44;;;;;;;;;;;;;;;9.05;74.69;100261.31;4200398;28;19987;-71
2023/11/01 05:52:45;;;;;;;;;;;;;;;9.05;74.51;100269.38;4198029;28;19956;-70
2023/11/01 05:54:47;;;;;;;;;;;;;;;9.07;74.82;100268.16;4196564;28;20368;-71
2023/11/01 05:56:51;;;;;;;;;;;;;;;9.08;74.88;100267.16;4193924;28;20015;-73
2023/11/01 05:58:53;;;;;;;;;;;;;;;9.09;75.08;100268.00;4197985;28;19956;-69
2023/11/01 06:00:54;;;;;;;;;;;;;;;9.09;74.65;100274.25;4196260;28;19967;-71
2023/11/01 06:02:57;;;;;;;;;;;;;;;9.10;74.64;100275.06;4199897;28;19925;-70
2023/11/01 06:04:59;;;;;;;;;;;;;;;9.08;74.57;100269.03;4193821;28;19967;-69
2023/11/01 06:07:02;;;;;;;;;;;;;;;9.09;74.80;100278.78;4204041;28;19924;-70
2023/11/01 06:09:04;;;;;;;;;;;;;;;9.09;74.63;100278.78;4205281;28;19955;-69
2023/11/01 06:11:07;;;;;;;;;;;;;;;9.10;74.82;100273.19;4196767;28;19960;-71
2023/11/01 06:13:11;;;;;;;;;;;;;;;9.11;74.61;100268.69;4201342;28;19967;-70
2023/11/01 06:15:14;;;;;;;;;;;;;;;9.12;74.45;100276.56;4200093;28;19986;-69
2023/11/01 06:17:18;;;;;;;;;;;;;;;9.13;74.56;100274.72;4204353;28;19960;-70
2023/11/01 06:19:20;;;;;;;;;;;;;;;9.14;74.67;100273.72;4210047;28;19932;-71
2023/11/01 06:21:23;;;;;;;;;;;;;;;9.15;74.68;100272.66;4206892;28;20395;-71
2023/11/01 06:23:25;;;;;;;;;;;;;;;9.14;74.47;100271.00;4204823;28;19925;-70
2023/11/01 06:25:27;;;;;;;;;;;;;;;9.14;74.39;100271.00;4202153;28;19924;-70
2023/11/01 06:27:29;;;;;;;;;;;;;;;9.11;74.55;100268.69;4202493;28;19956;-70
2023/11/01 06:29:35;;;;;;;;;;;;;;;9.15;74.48;100276.22;4179226;28;19952;-71
2023/11/01 06:31:38;;;;;;;;;;;;;;;9.17;74.17;100281.44;4206226;28;19964;-68
2023/11/01 06:33:40;;;;;;;;;;;;;;;9.17;74.46;100284.13;4203684;28;19924;-70
2023/11/01 06:35:42;;;;;;;;;;;;;;;9.18;74.43;100280.38;4205861;28;19962;-69
2023/11/01 06:37:46;;;;;;;;;;;;;;;9.18;74.44;100289.34;4205070;28;19925;-70
2023/11/01 06:39:47;;;;;;;;;;;;;;;9.18;74.34;100286.63;4202271;28;20378;-70
2023/11/01 06:41:49;;;;;;;;;;;;;;;9.18;74.77;100288.47;4191775;28;20129;-71
2023/11/01 06:43:51;;;;;;;;;;;;;;;9.18;74.86;100289.34;4193696;28;19940;-69
2023/11/01 06:45:55;;;;;;;;;;;;;;;9.19;74.78;100288.28;4192806;28;20601;-70
2023/11/01 06:47:57;;;;;;;;;;;;;;;9.22;75.01;100297.06;4192052;28;20027;-71
2023/11/01 06:49:58;;;;;;;;;;;;;;;9.22;75.02;100294.38;4190268;28;20042;-71
2023/11/01 06:52:00;;;;;;;;;;;;;;;9.23;74.77;100299.53;4192127;28;20617;-70
2023/11/01 06:54:02;;;;;;;;;;;;;;;9.22;75.29;100292.50;4191883;28;20020;-71
2023/11/01 06:56:04;;;;;;;;;;;;;;;9.24;75.14;100295.84;4191101;28;20024;-70
2023/11/01 06:58:06;;;;;;;;;;;;;;;9.24;75.26;100295.84;4191722;28;20016;-71
2023/11/01 07:00:08;;;;;;;;;;;;;;;9.27;75.41;100294.66;4191326;28;20365;-70
2023/11/01 07:02:11;;;;;;;;;;;;;;;9.27;75.50;100289.28;4191133;28;20019;-71
2023/11/01 07:04:13;;;;;;;;;;;;;;;9.26;75.13;100288.41;4193160;28;20288;-70
2023/11/01 07:06:15;;;;;;;;;;;;;;;9.26;75.35;100299.19;4192364;28;20486;-69
2023/11/01 07:08:17;;;;;;;;;;;;;;;9.28;75.43;100290.94;4193324;28;20020;-68
2023/11/01 07:10:20;;;;;;;;;;;;;;;9.29;75.29;100282.66;4192896;28;20011;-70
2023/11/01 07:12:22;;;;;;;;;;;;;;;9.28;75.64;100285.53;4191961;28;20435;-70
2023/11/01 07:14:27;;;;;;;;;;;;;;;9.30;75.54;100278.97;4190530;28;19929;-69
2023/11/01 07:16:29;;;;;;;;;;;;;;;9.30;75.58;100278.97;4191341;28;20369;-70
2023/11/01 07:18:31;;;;;;;;;;;;;;;9.30;75.42;100276.25;4192090;28;20019;-68
2023/11/01 07:20:34;;;;;;;;;;;;;;;9.31;75.70;100269.00;4192786;28;20035;-69
2023/11/01 07:22:36;;;;;;;;;;;;;;;9.31;75.64;100272.56;4192205;28;20015;-69
2023/11/01 07:24:38;;;;;;;;;;;;;;;9.32;75.49;100274.22;4190916;28;19933;-68
2023/11/01 07:26:40;;;;;;;;;;;;;;;9.32;75.45;100274.22;4208186;28;19931;-69
2023/11/01 07:28:42;;;;;;;;;;;;;;;9.33;75.48;100277.78;4193107;28;20027;-68
2023/11/01 07:30:46;;;;;;;;;;;;;;;9.33;75.81;100267.81;4192001;28;20398;-68
2023/11/01 07:32:48;;;;;;;;;;;;;;;9.34;75.60;100274.03;4191329;28;20019;-69
2023/11/01 07:34:52;;;;;;;;;;;;;;;9.35;76.15;100264.94;4193055;28;20110;-69
2023/11/01 07:36:54;;;;;;;;;;;;;;;9.35;75.91;100273.03;4192351;28;20047;-69
2023/11/01 07:38:56;;;;;;;;;;;;;;;9.35;76.21;100268.47;4192299;28;19924;-69
2023/11/01 07:40:58;;;;;;;;;;;;;;;9.36;76.16;100266.63;4192423;28;20014;-69
2023/11/01 07:43:00;;;;;;;;;;;;;;;9.35;76.14;100260.38;4193192;28;20373;-70
2023/11/01 07:45:02;;;;;;;;;;;;;;;9.36;76.00;100267.47;4192756;28;20788;-69
2023/11/01 07:47:06;;;;;;;;;;;;;;;9.38;76.36;100269.97;4186415;28;20899;-69
2023/11/01 07:49:08;;;;;;;;;;;;;;;9.38;76.38;100257.31;4190238;28;20015;-70
2023/11/01 07:51:12;;;;;;;;;;;;;;;9.40;76.33;100267.09;4192555;28;20039;-69
2023/11/01 07:53:14;;;;;;;;;;;;;;;9.41;76.77;100263.41;4192644;28;20727;-69
2023/11/01 07:55:19;;;;;;;;;;;;;;;9.45;76.85;100257.47;4191426;28;19928;-69
2023/11/01 07:57:21;;;;;;;;;;;;;;;9.48;76.87;100262.50;4192427;28;20477;-69
2023/11/01 07:59:23;;;;;;;;;;;;;;;9.51;77.15;100256.75;4193051;28;20035;-69
2023/11/01 08:01:25;;;;;;;;;;;;;;;9.56;77.09;100250.78;4192913;28;20019;-69
2023/11/01 08:03:29;;;;;;;;;;;;;;;9.63;76.93;100248.19;4187274;28;19939;-69
2023/11/01 08:05:31;;;;;;;;;;;;;;;9.70;76.93;100254.53;4191003;28;20620;-69
2023/11/01 08:07:33;;;;;;;;;;;;;;;9.77;76.66;100251.94;4192501;28;20011;-68
2023/11/01 08:09:35;;;;;;;;;;;;;;;9.83;76.89;100252.03;4193540;28;20018;-69
2023/11/01 08:11:37;;;;;;;;;;;;;;;9.92;76.75;100252.78;4194576;28;20026;-69
2023/11/01 08:13:39;;;;;;;;;;;;;;;10.00;76.60;100246.47;4195773;28;20015;-68
2023/11/01 08:15:43;;;;;;;;;;;;;;;10.07;76.18;100242.84;4195884;28;20026;-69
2023/11/01 08:17:45;;;;;;;;;;;;;;;10.16;76.03;100242.78;4194666;28;20011;-69
2023/11/01 08:19:49;;;;;;;;;;;;;;;10.27;75.84;100242.28;4195249;28;20017;-69
2023/11/01 08:21:51;;;;;;;;;;;;;;;10.35;75.63;100238.69;4195647;28;20011;-69
2023/11/01 08:23:55;;;;;;;;;;;;;;;10.45;75.49;100247.31;4195761;28;20032;-68
2023/11/01 08:26:00;;;;;;;;;;;;;;;10.54;75.00;100234.56;4195091;28;19924;-69
2023/11/01 08:28:02;;;;;;;;;;;;;;;10.62;74.78;100235.28;4195442;28;20036;-69
2023/11/01 08:30:03;;;;;;;;;;;;;;;10.71;74.85;100233.31;4193940;28;20369;-69
2023/11/01 08:32:08;;;;;;;;;;;;;;;10.81;74.62;100236.56;4195042;28;19924;-69
2023/11/01 08:34:11;;;;;;;;;;;;;;;10.92;74.39;100239.75;4196407;28;19936;-68
2023/11/01 08:36:13;;;;;;;;;;;;;;;10.98;74.49;100234.41;4195485;28;20023;-68
2023/11/01 08:38:18;;;;;;;;;;;;;;;11.12;74.21;100238.09;4195404;28;20015;-68
2023/11/01 08:40:20;;;;;;;;;;;;;;;11.22;73.91;100243.16;4194817;28;20604;-69
2023/11/01 08:42:22;;;;;;;;;;;;;;;11.31;73.47;100241.19;4194948;28;20027;-68
2023/11/01 08:44:25;;;;;;;;;;;;;;;11.41;73.62;100243.56;4195171;28;20027;-68
2023/11/01 08:46:26;;;;;;;;;;;;;;;11.49;73.29;100236.16;4194561;28;20007;-69
2023/11/01 08:48:28;;;;;;;;;;;;;;;11.58;72.83;100238.72;4195397;28;19928;-68
2023/11/01 08:50:30;;;;;;;;;;;;;;;11.65;72.77;100234.19;4194344;28;20438;-68
2023/11/01 08:52:32;;;;;;;;;;;;;;;11.72;72.38;100238.63;4194268;28;20482;-69
2023/11/01 08:54:36;;;;;;;;;;;;;;;11.79;72.28;100235.97;4195330;28;20019;-69
2023/11/01 08:56:39;;;;;;;;;;;;;;;11.84;71.81;100238.91;4195675;28;20000;-69
2023/11/01 08:58:41;;;;;;;;;;;;;;;11.90;71.94;100237.28;4194187;28;20035;-69
2023/11/01 09:00:46;;;;;;;;;;;;;;;11.94;71.67;100230.44;4194544;28;20020;-69
2023/11/01 09:02:49;;;;;;;;;;;;;;;11.96;71.14;100231.13;4194679;28;20020;-69
2023/11/01 09:04:53;;;;;;;;;;;;;;;12.00;71.25;100226.97;4195737;28;20007;-69
2023/11/01 09:06:57;;;;;;;;;;;;;;;12.03;70.90;100237.38;4195328;28;19928;-69
2023/11/01 09:08:59;;;;;;;;;;;;;;;12.05;70.95;100237.19;4195542;28;20011;-69
2023/11/01 09:11:01;;;;;;;;;;;;;;;12.07;70.99;100227.00;4194739;28;20051;-68
2023/11/01 09:13:05;;;;;;;;;;;;;;;12.08;70.97;100234.09;4194347;28;19947;-69
2023/11/01 09:15:07;;;;;;;;;;;;;;;12.09;70.73;100241.19;4195131;28;20031;-69
2023/11/01 09:17:09;;;;;;;;;;;;;;;12.11;70.88;100235.56;4195028;28;20011;-69
2023/11/01 09:19:13;;;;;;;;;;;;;;;12.10;70.80;100232.03;4195041;28;20381;-68
2023/11/01 09:21:15;;;;;;;;;;;;;;;12.11;70.67;100233.69;4193796;28;20016;-68
2023/11/01 09:23:26;;;;;;;;;;;;;;;12.12;70.90;100239.97;4194073;28;20357;-69
2023/11/01 09:25:27;;;;;;;;;;;;;;;12.11;70.92;100239.09;4194810;28;20047;-69
2023/11/01 09:27:29;;;;;;;;;;;;;;;12.11;70.76;100228.28;4193933;28;20307;-68
2023/11/01 09:29:31;;;;;;;;;;;;;;;12.13;70.98;100225.38;4193635;28;20012;-69
2023/11/01 09:31:36;;;;;;;;;;;;;;;12.14;71.04;100221.63;4192226;28;20379;-68
2023/11/01 09:33:38;;;;;;;;;;;;;;;12.15;70.77;100234.97;4194356;28;19925;-69
2023/11/01 09:35:44;;;;;;;;;;;;;;;12.15;70.93;100223.31;4194104;28;20007;-68
2023/11/01 09:37:48;;;;;;;;;;;;;;;12.15;70.85;100221.44;4194863;28;20024;-68
2023/11/01 09:39:49;;;;;;;;;;;;;;;12.15;70.87;100216.03;4193854;28;20019;-68
2023/11/01 09:41:54;;;;;;;;;;;;;;;12.18;71.23;100214.78;4194212;28;20599;-69
2023/11/01 09:43:57;;;;;;;;;;;;;;;12.19;71.24;100213.72;4192755;28;20434;-68
2023/11/01 09:46:01;;;;;;;;;;;;;;;12.20;71.53;100210.81;4185906;28;19932;-68
2023/11/01 09:48:06;;;;;;;;;;;;;;;12.21;71.44;100204.38;4193635;28;19924;-68
2023/11/01 09:50:13;;;;;;;;;;;;;;;12.23;71.52;100209.59;4194297;28;20031;-68
2023/11/01 09:52:15;;;;;;;;;;;;;;;12.25;71.68;100207.53;4193064;28;20011;-68
2023/11/01 09:54:17;;;;;;;;;;;;;;;12.28;71.58;100209.00;4194593;28;20027;-68
2023/11/01 09:56:20;;;;;;;;;;;;;;;12.31;71.67;100206.72;4194161;28;20103;-68
2023/11/01 09:58:22;;;;;;;;;;;;;;;12.34;71.94;100205.50;4192631;28;20016;-68
2023/11/01 10:00:24;;;;;;;;;;;;;;;12.35;72.16;100202.59;4192457;28;20016;-69
2023/11/01 10:02:27;;;;;;;;;;;;;;;12.38;72.19;100190.50;4190499;28;20024;-68
2023/11/01 10:04:29;;;;;;;;;;;;;;;12.41;72.19;100198.22;4193192;28;20019;-69
2023/11/01 10:06:30;;;;;;;;;;;;;;;12.45;72.28;100196.78;4191961;28;19925;-69
2023/11/01 10:08:32;;;;;;;;;;;;;;;12.48;72.69;100190.13;4194135;28;19936;-69
2023/11/01 10:10:34;;;;;;;;;;;;;;;12.51;72.62;100185.13;4192213;28;20047;-68
2023/11/01 10:12:38;;;;;;;;;;;;;;;12.54;72.93;100195.56;4193143;28;20025;-69
2023/11/01 10:14:40;;;;;;;;;;;;;;;12.58;72.86;100182.44;4193466;28;20000;-69
2023/11/01 10:16:42;;;;;;;;;;;;;;;12.61;73.00;100185.56;4193498;28;20011;-69
2023/11/01 10:18:45;;;;;;;;;;;;;;;12.65;73.46;100185.16;4194188;28;19936;-68
2023/11/01 10:20:49;;;;;;;;;;;;;;;12.68;73.32;100179.34;4193840;28;20581;-68
2023/11/01 10:22:51;;;;;;;;;;;;;;;12.72;73.29;100177.91;4192280;28;20007;-71
2023/11/01 10:24:57;;;;;;;;;;;;;;;12.76;73.45;100179.16;4192784;28;20019;-68
2023/11/01 10:26:59;;;;;;;;;;;;;;;12.79;73.35;100179.59;4193282;28;20018;-69
2023/11/01 10:29:02;;;;;;;;;;;;;;;12.84;73.76;100176.25;4193629;28;19928;-68
2023/11/01 10:31:04;;;;;;;;;;;;;;;12.87;73.59;100172.28;4191057;28;20359;-70
2023/11/01 10:33:07;;;;;;;;;;;;;;;12.90;73.55;100170.00;4193427;28;20007;-68
2023/11/01 10:35:12;;;;;;;;;;;;;;;12.93;73.34;100168.75;4193573;28;20031;-68
2023/11/01 10:37:15;;;;;;;;;;;;;;;12.95;73.36;100167.50;4193957;28;20449;-69